sensor_id;sensor_type;location;lat;lon;timestamp;temperature;humidity
3564;DHT22;1796;52.388;13.096;2022-09-20T00:02:27;7.80;99.90
3564;DHT22;1796;52.388;13.096;2022-09-20T00:04:53;7.80;99.90
3564;DHT22;1796;52.388;13.096;2022-09-20T00:07:20;7.80;99.90
3564;DHT22;1796;52.388;13.096;2022-09-20T00:09:49;7.80;99.90
3564;DHT22;1796;52.388;13.096;2022-09-20T00:12:15;7.90;99.90
3564;DHT22;1796;52.388;13.096;2022-09-20T00:14:42;7.90;99.90
3564;DHT22;1796;52.388;13.096;2022-09-20T00:17:09;7.80;99.90
3564;DHT22;1796;52.388;13.096;2022-09-20T00:19:36;7.80;99.90
3564;DHT22;1796;52.388;13.096;2022-09-20T00:22:03;7.80;99.90
3564;DHT22;1796;52.388;13.096;2022-09-20T00:24:30;7.80;99.90
3564;DHT22;1796;52.388;13.096;2022-09-20T00:27:01;7.70;99.90
3564;DHT22;1796;52.388;13.096;2022-09-20T00:29:28;7.70;99.90
3564;DHT22;1796;52.388;13.096;2022-09-20T00:31:55;7.70;99.90
3564;DHT22;1796;52.388;13.096;2022-09-20T00:34:22;7.70;99.90
3564;DHT22;1796;52.388;13.096;2022-09-20T00:37:06;7.80;99.90
3564;DHT22;1796;52.388;13.096;2022-09-20T00:39:33;7.80;99.90
3564;DHT22;1796;52.388;13.096;2022-09-20T00:42:01;7.70;99.90
3564;DHT22;1796;52.388;13.096;2022-09-20T00:44:44;7.70;99.90
3564;DHT22;1796;52.388;13.096;2022-09-20T00:47:18;7.80;99.90
3564;DHT22;1796;52.388;13.096;2022-09-20T00:49:47;7.70;99.90
3564;DHT22;1796;52.388;13.096;2022-09-20T00:52:15;7.70;99.90
3564;DHT22;1796;52.388;13.096;2022-09-20T00:54:42;7.70;99.90
3564;DHT22;1796;52.388;13.096;2022-09-20T00:57:11;7.80;99.90
3564;DHT22;1796;52.388;13.096;2022-09-20T00:59:40;7.80;99.90
3564;DHT22;1796;52.388;13.096;2022-09-20T01:02:11;7.90;99.90
3564;DHT22;1796;52.388;13.096;2022-09-20T01:04:41;7.90;99.90
3564;DHT22;1796;52.388;13.096;2022-09-20T01:07:11;7.80;99.90
3564;DHT22;1796;52.388;13.096;2022-09-20T01:09:39;7.90;99.90
3564;DHT22;1796;52.388;13.096;2022-09-20T01:12:10;7.90;99.90
3564;DHT22;1796;52.388;13.096;2022-09-20T01:14:42;7.90;99.90
3564;DHT22;1796;52.388;13.096;2022-09-20T01:17:10;7.90;99.90
3564;DHT22;1796;52.388;13.096;2022-09-20T01:19:46;7.90;99.90
3564;DHT22;1796;52.388;13.096;2022-09-20T01:22:19;8.00;99.90
3564;DHT22;1796;52.388;13.096;2022-09-20T01:24:52;8.00;99.90
3564;DHT22;1796;52.388;13.096;2022-09-20T01:27:43;8.10;99.90
3564;DHT22;1796;52.388;13.096;2022-09-20T01:30:13;8.10;99.90
3564;DHT22;1796;52.388;13.096;2022-09-20T01:32:55;8.10;99.90
3564;DHT22;1796;52.388;13.096;2022-09-20T01:35:25;8.10;99.90
3564;DHT22;1796;52.388;13.096;2022-09-20T01:38:04;8.00;99.90
3564;DHT22;1796;52.388;13.096;2022-09-20T01:40:38;8.00;99.90
3564;DHT22;1796;52.388;13.096;2022-09-20T01:43:15;8.20;99.90
3564;DHT22;1796;52.388;13.096;2022-09-20T01:45:47;8.20;99.90
3564;DHT22;1796;52.388;13.096;2022-09-20T01:48:20;8.20;99.90
3564;DHT22;1796;52.388;13.096;2022-09-20T01:57:31;8.20;99.90
3564;DHT22;1796;52.388;13.096;2022-09-20T02:00:11;8.30;99.90
3564;DHT22;1796;52.388;13.096;2022-09-20T02:03:04;8.40;99.90
3564;DHT22;1796;52.388;13.096;2022-09-20T02:05:46;8.40;99.90
3564;DHT22;1796;52.388;13.096;2022-09-20T02:11:39;8.40;99.90
3564;DHT22;1796;52.388;13.096;2022-09-20T02:14:34;8.40;99.90
3564;DHT22;1796;52.388;13.096;2022-09-20T02:17:11;8.40;99.90
3564;DHT22;1796;52.388;13.096;2022-09-20T02:20:06;8.50;99.90
3564;DHT22;1796;52.388;13.096;2022-09-20T02:22:45;8.40;99.90
3564;DHT22;1796;52.388;13.096;2022-09-20T02:25:35;8.50;99.90
3564;DHT22;1796;52.388;13.096;2022-09-20T02:28:14;8.50;99.90
3564;DHT22;1796;52.388;13.096;2022-09-20T02:30:50;8.60;99.90
3564;DHT22;1796;52.388;13.096;2022-09-20T02:33:34;8.60;99.90
3564;DHT22;1796;52.388;13.096;2022-09-20T02:36:17;8.70;99.90
3564;DHT22;1796;52.388;13.096;2022-09-20T02:38:53;8.60;99.90
3564;DHT22;1796;52.388;13.096;2022-09-20T02:44:46;8.70;99.90
3564;DHT22;1796;52.388;13.096;2022-09-20T02:47:21;8.80;99.90
3564;DHT22;1796;52.388;13.096;2022-09-20T02:50:00;8.80;99.90
3564;DHT22;1796;52.388;13.096;2022-09-20T02:52:36;8.90;99.90
3564;DHT22;1796;52.388;13.096;2022-09-20T02:55:10;8.90;99.90
3564;DHT22;1796;52.388;13.096;2022-09-20T02:57:46;8.90;99.90
3564;DHT22;1796;52.388;13.096;2022-09-20T03:00:20;8.90;99.90
3564;DHT22;1796;52.388;13.096;2022-09-20T03:02:59;8.90;99.90
3564;DHT22;1796;52.388;13.096;2022-09-20T03:05:39;9.00;99.90
3564;DHT22;1796;52.388;13.096;2022-09-20T03:08:28;9.00;99.90
3564;DHT22;1796;52.388;13.096;2022-09-20T03:11:07;9.00;99.90
3564;DHT22;1796;52.388;13.096;2022-09-20T03:13:49;8.90;99.90
3564;DHT22;1796;52.388;13.096;2022-09-20T03:16:30;9.00;99.90
3564;DHT22;1796;52.388;13.096;2022-09-20T03:19:03;9.00;99.90
3564;DHT22;1796;52.388;13.096;2022-09-20T03:21:47;9.00;99.90
3564;DHT22;1796;52.388;13.096;2022-09-20T03:24:23;9.00;99.90
3564;DHT22;1796;52.388;13.096;2022-09-20T03:26:58;9.00;99.90
3564;DHT22;1796;52.388;13.096;2022-09-20T03:29:46;9.00;99.90
3564;DHT22;1796;52.388;13.096;2022-09-20T03:32:33;9.00;99.90
3564;DHT22;1796;52.388;13.096;2022-09-20T03:38:02;9.00;99.90
3564;DHT22;1796;52.388;13.096;2022-09-20T03:41:06;9.00;99.90
3564;DHT22;1796;52.388;13.096;2022-09-20T03:43:48;9.00;99.90
3564;DHT22;1796;52.388;13.096;2022-09-20T03:46:22;9.00;99.90
3564;DHT22;1796;52.388;13.096;2022-09-20T03:49:37;9.00;99.90
3564;DHT22;1796;52.388;13.096;2022-09-20T03:52:15;9.00;99.90
3564;DHT22;1796;52.388;13.096;2022-09-20T03:55:07;9.00;99.90
3564;DHT22;1796;52.388;13.096;2022-09-20T04:00:42;8.90;99.90
3564;DHT22;1796;52.388;13.096;2022-09-20T04:03:24;8.90;99.90
3564;DHT22;1796;52.388;13.096;2022-09-20T04:06:03;8.90;99.90
3564;DHT22;1796;52.388;13.096;2022-09-20T04:08:47;8.90;99.90
3564;DHT22;1796;52.388;13.096;2022-09-20T04:11:24;8.90;99.90
3564;DHT22;1796;52.388;13.096;2022-09-20T04:13:55;8.90;99.90
3564;DHT22;1796;52.388;13.096;2022-09-20T04:16:35;8.90;99.90
3564;DHT22;1796;52.388;13.096;2022-09-20T04:19:11;8.90;99.90
3564;DHT22;1796;52.388;13.096;2022-09-20T04:21:46;8.90;99.90
3564;DHT22;1796;52.388;13.096;2022-09-20T04:24:19;9.00;99.90
3564;DHT22;1796;52.388;13.096;2022-09-20T04:26:52;9.00;99.90
3564;DHT22;1796;52.388;13.096;2022-09-20T04:29:29;9.00;99.90
3564;DHT22;1796;52.388;13.096;2022-09-20T04:32:03;9.10;99.90
3564;DHT22;1796;52.388;13.096;2022-09-20T04:34:37;9.10;99.90
3564;DHT22;1796;52.388;13.096;2022-09-20T04:37:26;9.10;99.90
3564;DHT22;1796;52.388;13.096;2022-09-20T04:40:14;9.10;99.90
3564;DHT22;1796;52.388;13.096;2022-09-20T04:46:24;9.00;99.90
3564;DHT22;1796;52.388;13.096;2022-09-20T04:49:27;9.00;99.90
3564;DHT22;1796;52.388;13.096;2022-09-20T04:52:15;9.00;99.90
3564;DHT22;1796;52.388;13.096;2022-09-20T04:55:17;9.00;99.90
3564;DHT22;1796;52.388;13.096;2022-09-20T04:58:14;9.00;99.90
3564;DHT22;1796;52.388;13.096;2022-09-20T05:01:03;9.00;99.90
3564;DHT22;1796;52.388;13.096;2022-09-20T05:07:04;8.90;99.90
3564;DHT22;1796;52.388;13.096;2022-09-20T05:09:51;8.80;99.90
3564;DHT22;1796;52.388;13.096;2022-09-20T05:12:47;8.70;99.90
3564;DHT22;1796;52.388;13.096;2022-09-20T05:15:34;8.80;99.90
3564;DHT22;1796;52.388;13.096;2022-09-20T05:18:30;8.80;99.90
3564;DHT22;1796;52.388;13.096;2022-09-20T05:21:12;8.80;99.90
3564;DHT22;1796;52.388;13.096;2022-09-20T05:23:55;8.80;99.90
3564;DHT22;1796;52.388;13.096;2022-09-20T05:26:32;8.90;99.90
3564;DHT22;1796;52.388;13.096;2022-09-20T05:29:09;8.90;99.90
3564;DHT22;1796;52.388;13.096;2022-09-20T05:31:42;8.90;99.90
3564;DHT22;1796;52.388;13.096;2022-09-20T05:34:18;8.90;99.90
3564;DHT22;1796;52.388;13.096;2022-09-20T05:36:53;8.90;99.90
3564;DHT22;1796;52.388;13.096;2022-09-20T05:39:33;8.90;99.90
3564;DHT22;1796;52.388;13.096;2022-09-20T05:42:13;9.00;99.90
3564;DHT22;1796;52.388;13.096;2022-09-20T05:45:06;9.00;99.90
3564;DHT22;1796;52.388;13.096;2022-09-20T05:47:49;9.20;99.90
3564;DHT22;1796;52.388;13.096;2022-09-20T05:50:32;9.40;99.90
3564;DHT22;1796;52.388;13.096;2022-09-20T05:53:27;9.50;99.90
3564;DHT22;1796;52.388;13.096;2022-09-20T05:56:07;9.80;99.90
3564;DHT22;1796;52.388;13.096;2022-09-20T05:58:57;9.70;99.90
3564;DHT22;1796;52.388;13.096;2022-09-20T06:01:31;9.90;99.90
3564;DHT22;1796;52.388;13.096;2022-09-20T06:04:08;10.00;99.90
3564;DHT22;1796;52.388;13.096;2022-09-20T06:06:48;10.00;99.90
3564;DHT22;1796;52.388;13.096;2022-09-20T06:09:33;9.70;99.90
3564;DHT22;1796;52.388;13.096;2022-09-20T06:12:18;9.70;99.90
3564;DHT22;1796;52.388;13.096;2022-09-20T06:14:51;9.80;99.90
3564;DHT22;1796;52.388;13.096;2022-09-20T06:17:27;10.10;99.90
3564;DHT22;1796;52.388;13.096;2022-09-20T06:20:09;10.30;99.90
3564;DHT22;1796;52.388;13.096;2022-09-20T06:22:40;10.50;99.90
3564;DHT22;1796;52.388;13.096;2022-09-20T06:25:17;10.50;99.90
3564;DHT22;1796;52.388;13.096;2022-09-20T06:27:53;10.40;99.90
3564;DHT22;1796;52.388;13.096;2022-09-20T06:30:24;10.20;99.90
3564;DHT22;1796;52.388;13.096;2022-09-20T06:32:53;10.10;99.90
3564;DHT22;1796;52.388;13.096;2022-09-20T06:35:23;10.10;99.90
3564;DHT22;1796;52.388;13.096;2022-09-20T06:37:55;10.20;99.90
3564;DHT22;1796;52.388;13.096;2022-09-20T06:40:46;10.20;99.90
3564;DHT22;1796;52.388;13.096;2022-09-20T06:43:34;10.20;99.90
3564;DHT22;1796;52.388;13.096;2022-09-20T06:46:05;10.90;99.90
3564;DHT22;1796;52.388;13.096;2022-09-20T06:48:32;11.50;99.90
3564;DHT22;1796;52.388;13.096;2022-09-20T06:51:00;11.40;99.90
3564;DHT22;1796;52.388;13.096;2022-09-20T06:53:28;11.00;99.90
3564;DHT22;1796;52.388;13.096;2022-09-20T06:55:55;10.70;99.90
3564;DHT22;1796;52.388;13.096;2022-09-20T06:58:25;10.20;99.90
3564;DHT22;1796;52.388;13.096;2022-09-20T07:00:54;10.20;99.90
3564;DHT22;1796;52.388;13.096;2022-09-20T07:03:21;10.10;99.90
3564;DHT22;1796;52.388;13.096;2022-09-20T07:05:48;10.00;99.90
3564;DHT22;1796;52.388;13.096;2022-09-20T07:08:15;10.00;99.90
3564;DHT22;1796;52.388;13.096;2022-09-20T07:10:42;9.70;99.90
3564;DHT22;1796;52.388;13.096;2022-09-20T07:13:10;9.70;99.90
3564;DHT22;1796;52.388;13.096;2022-09-20T07:15:38;9.60;99.90
3564;DHT22;1796;52.388;13.096;2022-09-20T07:18:07;10.10;99.90
3564;DHT22;1796;52.388;13.096;2022-09-20T07:20:34;10.70;99.90
3564;DHT22;1796;52.388;13.096;2022-09-20T07:23:01;11.00;99.90
3564;DHT22;1796;52.388;13.096;2022-09-20T07:25:28;11.40;99.90
3564;DHT22;1796;52.388;13.096;2022-09-20T07:27:56;11.70;99.90
3564;DHT22;1796;52.388;13.096;2022-09-20T07:30:23;11.80;99.90
3564;DHT22;1796;52.388;13.096;2022-09-20T07:32:50;11.70;99.90
3564;DHT22;1796;52.388;13.096;2022-09-20T07:35:18;11.90;99.90
3564;DHT22;1796;52.388;13.096;2022-09-20T07:37:45;11.80;99.90
3564;DHT22;1796;52.388;13.096;2022-09-20T07:40:12;11.60;99.90
3564;DHT22;1796;52.388;13.096;2022-09-20T07:42:39;11.60;99.90
3564;DHT22;1796;52.388;13.096;2022-09-20T07:45:07;11.50;99.90
3564;DHT22;1796;52.388;13.096;2022-09-20T07:47:34;11.60;99.90
3564;DHT22;1796;52.388;13.096;2022-09-20T07:50:02;11.50;99.90
3564;DHT22;1796;52.388;13.096;2022-09-20T07:52:30;12.00;99.90
3564;DHT22;1796;52.388;13.096;2022-09-20T07:54:57;12.30;99.90
3564;DHT22;1796;52.388;13.096;2022-09-20T07:57:24;12.30;99.90
3564;DHT22;1796;52.388;13.096;2022-09-20T07:59:51;12.40;99.90
3564;DHT22;1796;52.388;13.096;2022-09-20T08:02:18;12.50;99.90
3564;DHT22;1796;52.388;13.096;2022-09-20T08:04:45;12.40;99.90
3564;DHT22;1796;52.388;13.096;2022-09-20T08:07:14;12.30;99.90
3564;DHT22;1796;52.388;13.096;2022-09-20T08:09:42;12.30;99.90
3564;DHT22;1796;52.388;13.096;2022-09-20T08:12:09;12.50;99.90
3564;DHT22;1796;52.388;13.096;2022-09-20T08:14:39;12.50;99.90
3564;DHT22;1796;52.388;13.096;2022-09-20T08:17:06;12.50;99.90
3564;DHT22;1796;52.388;13.096;2022-09-20T08:19:36;12.50;99.90
3564;DHT22;1796;52.388;13.096;2022-09-20T08:22:05;12.70;99.90
3564;DHT22;1796;52.388;13.096;2022-09-20T08:24:32;12.90;99.90
3564;DHT22;1796;52.388;13.096;2022-09-20T08:27:01;13.00;99.90
3564;DHT22;1796;52.388;13.096;2022-09-20T08:29:28;13.20;99.90
3564;DHT22;1796;52.388;13.096;2022-09-20T08:31:55;13.30;99.90
3564;DHT22;1796;52.388;13.096;2022-09-20T08:34:24;13.50;99.90
3564;DHT22;1796;52.388;13.096;2022-09-20T08:36:51;13.50;99.90
3564;DHT22;1796;52.388;13.096;2022-09-20T08:39:21;13.60;99.90
3564;DHT22;1796;52.388;13.096;2022-09-20T08:41:53;13.60;99.90
3564;DHT22;1796;52.388;13.096;2022-09-20T08:44:25;13.70;99.90
3564;DHT22;1796;52.388;13.096;2022-09-20T08:47:01;13.80;99.90
3564;DHT22;1796;52.388;13.096;2022-09-20T08:49:30;13.60;99.90
3564;DHT22;1796;52.388;13.096;2022-09-20T08:51:58;13.50;99.90
3564;DHT22;1796;52.388;13.096;2022-09-20T08:54:30;13.20;99.90
3564;DHT22;1796;52.388;13.096;2022-09-20T08:57:00;13.00;99.90
3564;DHT22;1796;52.388;13.096;2022-09-20T08:59:31;12.90;99.90
3564;DHT22;1796;52.388;13.096;2022-09-20T09:01:58;13.00;99.90
3564;DHT22;1796;52.388;13.096;2022-09-20T09:04:33;13.20;99.90
3564;DHT22;1796;52.388;13.096;2022-09-20T09:07:00;13.60;99.90
3564;DHT22;1796;52.388;13.096;2022-09-20T09:09:28;14.00;99.90
3564;DHT22;1796;52.388;13.096;2022-09-20T09:11:56;14.20;99.90
3564;DHT22;1796;52.388;13.096;2022-09-20T09:14:25;14.20;99.90
3564;DHT22;1796;52.388;13.096;2022-09-20T09:17:13;13.90;99.90
3564;DHT22;1796;52.388;13.096;2022-09-20T09:19:46;13.90;99.90
3564;DHT22;1796;52.388;13.096;2022-09-20T09:22:22;13.70;99.90
3564;DHT22;1796;52.388;13.096;2022-09-20T09:25:12;13.60;99.90
3564;DHT22;1796;52.388;13.096;2022-09-20T09:27:53;13.50;99.90
3564;DHT22;1796;52.388;13.096;2022-09-20T09:30:23;13.70;99.90
3564;DHT22;1796;52.388;13.096;2022-09-20T09:32:52;14.20;99.90
3564;DHT22;1796;52.388;13.096;2022-09-20T09:35:26;14.50;99.90
3564;DHT22;1796;52.388;13.096;2022-09-20T09:37:55;14.70;99.90
3564;DHT22;1796;52.388;13.096;2022-09-20T09:40:23;14.90;99.90
3564;DHT22;1796;52.388;13.096;2022-09-20T09:42:52;15.40;99.90
3564;DHT22;1796;52.388;13.096;2022-09-20T09:45:31;15.60;99.90
3564;DHT22;1796;52.388;13.096;2022-09-20T09:48:01;15.50;99.90
3564;DHT22;1796;52.388;13.096;2022-09-20T09:50:32;15.40;99.90
3564;DHT22;1796;52.388;13.096;2022-09-20T09:53:02;15.30;99.90
3564;DHT22;1796;52.388;13.096;2022-09-20T09:55:45;15.30;99.90
3564;DHT22;1796;52.388;13.096;2022-09-20T09:58:21;15.10;99.90
3564;DHT22;1796;52.388;13.096;2022-09-20T10:00:50;14.90;99.90
3564;DHT22;1796;52.388;13.096;2022-09-20T10:03:37;15.00;99.90
3564;DHT22;1796;52.388;13.096;2022-09-20T10:06:13;15.20;99.90
3564;DHT22;1796;52.388;13.096;2022-09-20T10:08:53;14.80;99.90
3564;DHT22;1796;52.388;13.096;2022-09-20T10:11:29;15.20;99.90
3564;DHT22;1796;52.388;13.096;2022-09-20T10:14:05;15.50;99.90
3564;DHT22;1796;52.388;13.096;2022-09-20T10:16:49;15.60;99.90
3564;DHT22;1796;52.388;13.096;2022-09-20T10:19:30;15.70;99.90
3564;DHT22;1796;52.388;13.096;2022-09-20T10:22:05;15.70;99.90
3564;DHT22;1796;52.388;13.096;2022-09-20T10:24:43;15.60;99.90
3564;DHT22;1796;52.388;13.096;2022-09-20T10:27:25;15.70;99.90
3564;DHT22;1796;52.388;13.096;2022-09-20T10:30:02;15.40;99.90
3564;DHT22;1796;52.388;13.096;2022-09-20T10:32:53;15.40;99.90
3564;DHT22;1796;52.388;13.096;2022-09-20T10:35:31;15.50;99.90
3564;DHT22;1796;52.388;13.096;2022-09-20T10:38:13;15.60;99.90
3564;DHT22;1796;52.388;13.096;2022-09-20T10:41:06;15.10;99.90
3564;DHT22;1796;52.388;13.096;2022-09-20T10:44:04;14.60;99.90
3564;DHT22;1796;52.388;13.096;2022-09-20T10:46:42;14.50;99.90
3564;DHT22;1796;52.388;13.096;2022-09-20T10:49:26;14.50;99.90
3564;DHT22;1796;52.388;13.096;2022-09-20T10:52:06;14.70;99.90
3564;DHT22;1796;52.388;13.096;2022-09-20T10:54:46;14.50;99.90
3564;DHT22;1796;52.388;13.096;2022-09-20T10:57:29;14.60;99.90
3564;DHT22;1796;52.388;13.096;2022-09-20T11:00:10;15.20;99.90
3564;DHT22;1796;52.388;13.096;2022-09-20T11:02:56;15.70;99.90
3564;DHT22;1796;52.388;13.096;2022-09-20T11:05:32;15.80;99.90
3564;DHT22;1796;52.388;13.096;2022-09-20T11:08:08;16.20;99.90
3564;DHT22;1796;52.388;13.096;2022-09-20T11:10:41;16.00;99.90
3564;DHT22;1796;52.388;13.096;2022-09-20T11:13:16;16.00;99.90
3564;DHT22;1796;52.388;13.096;2022-09-20T11:15:48;16.00;99.90
3564;DHT22;1796;52.388;13.096;2022-09-20T11:18:22;16.00;99.90
3564;DHT22;1796;52.388;13.096;2022-09-20T11:20:56;16.00;99.90
3564;DHT22;1796;52.388;13.096;2022-09-20T11:23:36;16.00;99.90
3564;DHT22;1796;52.388;13.096;2022-09-20T11:26:09;15.90;99.90
3564;DHT22;1796;52.388;13.096;2022-09-20T11:28:40;15.70;99.90
3564;DHT22;1796;52.388;13.096;2022-09-20T11:31:10;15.60;99.90
3564;DHT22;1796;52.388;13.096;2022-09-20T11:33:44;15.30;99.90
3564;DHT22;1796;52.388;13.096;2022-09-20T11:36:18;15.20;99.90
3564;DHT22;1796;52.388;13.096;2022-09-20T11:38:52;15.10;99.90
3564;DHT22;1796;52.388;13.096;2022-09-20T11:41:23;14.90;99.90
3564;DHT22;1796;52.388;13.096;2022-09-20T11:43:53;15.00;99.90
3564;DHT22;1796;52.388;13.096;2022-09-20T11:46:24;15.00;99.90
3564;DHT22;1796;52.388;13.096;2022-09-20T11:48:56;15.50;99.90
3564;DHT22;1796;52.388;13.096;2022-09-20T11:51:50;15.90;99.90
3564;DHT22;1796;52.388;13.096;2022-09-20T11:57:20;16.10;99.90
3564;DHT22;1796;52.388;13.096;2022-09-20T11:59:50;16.30;99.90
3564;DHT22;1796;52.388;13.096;2022-09-20T12:02:22;16.50;99.90
3564;DHT22;1796;52.388;13.096;2022-09-20T12:04:50;16.50;99.90
3564;DHT22;1796;52.388;13.096;2022-09-20T12:07:22;16.10;99.90
3564;DHT22;1796;52.388;13.096;2022-09-20T12:09:55;16.00;99.90
3564;DHT22;1796;52.388;13.096;2022-09-20T12:12:37;15.90;99.90
3564;DHT22;1796;52.388;13.096;2022-09-20T12:15:21;16.00;99.90
3564;DHT22;1796;52.388;13.096;2022-09-20T12:18:05;15.90;99.90
3564;DHT22;1796;52.388;13.096;2022-09-20T12:20:56;16.00;99.90
3564;DHT22;1796;52.388;13.096;2022-09-20T12:26:55;16.70;99.90
3564;DHT22;1796;52.388;13.096;2022-09-20T12:32:45;17.10;99.90
3564;DHT22;1796;52.388;13.096;2022-09-20T12:38:33;17.20;99.90
3564;DHT22;1796;52.388;13.096;2022-09-20T12:41:11;17.10;99.90
3564;DHT22;1796;52.388;13.096;2022-09-20T12:43:56;17.30;99.90
3564;DHT22;1796;52.388;13.096;2022-09-20T12:46:35;17.20;99.90
3564;DHT22;1796;52.388;13.096;2022-09-20T12:49:31;17.00;99.90
3564;DHT22;1796;52.388;13.096;2022-09-20T12:52:32;16.80;99.90
3564;DHT22;1796;52.388;13.096;2022-09-20T12:55:47;16.70;99.90
3564;DHT22;1796;52.388;13.096;2022-09-20T12:58:33;17.00;99.90
3564;DHT22;1796;52.388;13.096;2022-09-20T13:01:31;17.50;99.90
3564;DHT22;1796;52.388;13.096;2022-09-20T13:10:24;16.20;99.90
3564;DHT22;1796;52.388;13.096;2022-09-20T13:12:57;15.80;99.90
3564;DHT22;1796;52.388;13.096;2022-09-20T13:15:25;14.70;99.90
3564;DHT22;1796;52.388;13.096;2022-09-20T13:17:54;12.80;99.90
3564;DHT22;1796;52.388;13.096;2022-09-20T13:20:27;11.30;99.90
3564;DHT22;1796;52.388;13.096;2022-09-20T13:22:56;10.80;99.90
3564;DHT22;1796;52.388;13.096;2022-09-20T13:25:24;10.60;99.90
3564;DHT22;1796;52.388;13.096;2022-09-20T13:27:59;10.20;99.90
3564;DHT22;1796;52.388;13.096;2022-09-20T13:30:29;10.10;99.90
3564;DHT22;1796;52.388;13.096;2022-09-20T13:33:14;10.00;99.90
3564;DHT22;1796;52.388;13.096;2022-09-20T13:35:43;10.00;99.90
3564;DHT22;1796;52.388;13.096;2022-09-20T13:38:12;10.10;99.90
3564;DHT22;1796;52.388;13.096;2022-09-20T13:40:45;10.10;99.90
3564;DHT22;1796;52.388;13.096;2022-09-20T13:43:23;10.20;99.90
3564;DHT22;1796;52.388;13.096;2022-09-20T13:45:55;10.20;99.90
3564;DHT22;1796;52.388;13.096;2022-09-20T13:48:25;10.40;99.90
3564;DHT22;1796;52.388;13.096;2022-09-20T13:50:53;10.40;99.90
3564;DHT22;1796;52.388;13.096;2022-09-20T13:53:22;10.50;99.90
3564;DHT22;1796;52.388;13.096;2022-09-20T13:55:49;10.70;99.90
3564;DHT22;1796;52.388;13.096;2022-09-20T13:58:19;10.60;99.90
3564;DHT22;1796;52.388;13.096;2022-09-20T14:00:49;10.60;99.90
3564;DHT22;1796;52.388;13.096;2022-09-20T14:03:19;10.80;99.90
3564;DHT22;1796;52.388;13.096;2022-09-20T14:05:49;10.70;99.90
3564;DHT22;1796;52.388;13.096;2022-09-20T14:08:21;10.80;99.90
3564;DHT22;1796;52.388;13.096;2022-09-20T14:10:49;10.90;99.90
3564;DHT22;1796;52.388;13.096;2022-09-20T14:13:30;11.10;99.90
3564;DHT22;1796;52.388;13.096;2022-09-20T14:15:58;11.00;99.90
3564;DHT22;1796;52.388;13.096;2022-09-20T14:18:26;10.90;99.90
3564;DHT22;1796;52.388;13.096;2022-09-20T14:20:54;10.90;99.90
3564;DHT22;1796;52.388;13.096;2022-09-20T14:23:24;10.80;99.90
3564;DHT22;1796;52.388;13.096;2022-09-20T14:26:21;10.70;99.90
3564;DHT22;1796;52.388;13.096;2022-09-20T14:28:49;10.80;99.90
3564;DHT22;1796;52.388;13.096;2022-09-20T14:31:19;10.70;99.90
3564;DHT22;1796;52.388;13.096;2022-09-20T14:33:51;10.60;99.90
3564;DHT22;1796;52.388;13.096;2022-09-20T14:36:21;10.60;99.90
3564;DHT22;1796;52.388;13.096;2022-09-20T14:38:51;10.60;99.90
3564;DHT22;1796;52.388;13.096;2022-09-20T14:41:27;10.60;99.90
3564;DHT22;1796;52.388;13.096;2022-09-20T14:43:58;10.70;99.90
3564;DHT22;1796;52.388;13.096;2022-09-20T14:46:29;10.80;99.90
3564;DHT22;1796;52.388;13.096;2022-09-20T14:49:17;10.80;99.90
3564;DHT22;1796;52.388;13.096;2022-09-20T14:51:46;10.80;99.90
3564;DHT22;1796;52.388;13.096;2022-09-20T14:54:23;10.70;99.90
3564;DHT22;1796;52.388;13.096;2022-09-20T14:56:51;10.70;99.90
3564;DHT22;1796;52.388;13.096;2022-09-20T14:59:22;10.60;99.90
3564;DHT22;1796;52.388;13.096;2022-09-20T15:02:00;10.70;99.90
3564;DHT22;1796;52.388;13.096;2022-09-20T15:04:29;10.50;99.90
3564;DHT22;1796;52.388;13.096;2022-09-20T15:07:00;10.50;99.90
3564;DHT22;1796;52.388;13.096;2022-09-20T15:09:28;10.50;99.90
3564;DHT22;1796;52.388;13.096;2022-09-20T15:12:03;10.50;99.90
3564;DHT22;1796;52.388;13.096;2022-09-20T15:14:30;10.50;99.90
3564;DHT22;1796;52.388;13.096;2022-09-20T15:16:58;10.40;99.90
3564;DHT22;1796;52.388;13.096;2022-09-20T15:19:25;10.40;99.90
3564;DHT22;1796;52.388;13.096;2022-09-20T15:21:52;10.30;99.90
3564;DHT22;1796;52.388;13.096;2022-09-20T15:24:20;10.40;99.90
3564;DHT22;1796;52.388;13.096;2022-09-20T15:26:48;10.50;99.90
3564;DHT22;1796;52.388;13.096;2022-09-20T15:29:15;10.50;99.90
3564;DHT22;1796;52.388;13.096;2022-09-20T15:31:43;10.80;99.90
3564;DHT22;1796;52.388;13.096;2022-09-20T15:36:42;11.30;99.90
3564;DHT22;1796;52.388;13.096;2022-09-20T15:39:09;11.60;99.90
3564;DHT22;1796;52.388;13.096;2022-09-20T15:41:38;11.60;99.90
3564;DHT22;1796;52.388;13.096;2022-09-20T15:44:05;11.80;99.90
3564;DHT22;1796;52.388;13.096;2022-09-20T15:46:33;11.80;99.90
3564;DHT22;1796;52.388;13.096;2022-09-20T15:49:01;11.80;99.90
3564;DHT22;1796;52.388;13.096;2022-09-20T15:51:29;11.90;99.90
3564;DHT22;1796;52.388;13.096;2022-09-20T15:53:57;11.80;99.90
3564;DHT22;1796;52.388;13.096;2022-09-20T15:56:26;11.80;99.90
3564;DHT22;1796;52.388;13.096;2022-09-20T15:58:56;11.70;99.90
3564;DHT22;1796;52.388;13.096;2022-09-20T16:01:26;11.70;99.90
3564;DHT22;1796;52.388;13.096;2022-09-20T16:03:54;11.60;99.90
3564;DHT22;1796;52.388;13.096;2022-09-20T16:06:21;11.40;99.90
3564;DHT22;1796;52.388;13.096;2022-09-20T16:08:49;11.40;99.90
3564;DHT22;1796;52.388;13.096;2022-09-20T16:11:17;11.40;99.90
3564;DHT22;1796;52.388;13.096;2022-09-20T16:13:45;11.40;99.90
3564;DHT22;1796;52.388;13.096;2022-09-20T16:16:13;11.30;99.90
3564;DHT22;1796;52.388;13.096;2022-09-20T16:18:42;11.10;99.90
3564;DHT22;1796;52.388;13.096;2022-09-20T16:21:26;10.90;99.90
3564;DHT22;1796;52.388;13.096;2022-09-20T16:23:54;10.80;99.90
3564;DHT22;1796;52.388;13.096;2022-09-20T16:26:23;10.80;99.90
3564;DHT22;1796;52.388;13.096;2022-09-20T16:28:50;10.80;99.90
3564;DHT22;1796;52.388;13.096;2022-09-20T16:31:33;10.70;99.90
3564;DHT22;1796;52.388;13.096;2022-09-20T16:34:02;10.50;99.90
3564;DHT22;1796;52.388;13.096;2022-09-20T16:36:30;10.50;99.90
3564;DHT22;1796;52.388;13.096;2022-09-20T16:38:57;10.30;99.90
3564;DHT22;1796;52.388;13.096;2022-09-20T16:41:25;10.30;99.90
3564;DHT22;1796;52.388;13.096;2022-09-20T16:43:53;10.30;99.90
3564;DHT22;1796;52.388;13.096;2022-09-20T16:46:21;10.30;99.90
3564;DHT22;1796;52.388;13.096;2022-09-20T16:48:53;10.20;99.90
3564;DHT22;1796;52.388;13.096;2022-09-20T16:51:22;10.10;99.90
3564;DHT22;1796;52.388;13.096;2022-09-20T16:53:51;10.00;99.90
3564;DHT22;1796;52.388;13.096;2022-09-20T16:56:21;10.00;99.90
3564;DHT22;1796;52.388;13.096;2022-09-20T16:58:49;9.90;99.90
3564;DHT22;1796;52.388;13.096;2022-09-20T17:01:16;9.90;99.90
3564;DHT22;1796;52.388;13.096;2022-09-20T17:03:43;9.80;99.90
3564;DHT22;1796;52.388;13.096;2022-09-20T17:06:14;9.80;99.90
3564;DHT22;1796;52.388;13.096;2022-09-20T17:08:42;9.80;99.90
3564;DHT22;1796;52.388;13.096;2022-09-20T17:11:12;9.70;99.90
3564;DHT22;1796;52.388;13.096;2022-09-20T17:13:40;9.70;99.90
3564;DHT22;1796;52.388;13.096;2022-09-20T17:16:09;9.60;99.90
3564;DHT22;1796;52.388;13.096;2022-09-20T17:18:37;9.60;99.90
3564;DHT22;1796;52.388;13.096;2022-09-20T17:21:09;9.50;99.90
3564;DHT22;1796;52.388;13.096;2022-09-20T17:23:40;9.40;99.90
3564;DHT22;1796;52.388;13.096;2022-09-20T17:26:10;9.40;99.90
3564;DHT22;1796;52.388;13.096;2022-09-20T17:28:40;9.30;99.90